Aviation Digital Data Service (ADDS)

Output produced by TAFs form (0225 UTC 21 November 2017)
found at http://www.aviationweather.gov/adds/tafs/
 
KRNH 202322Z 2100/2124 22009KT P6SM BKN200 
     FM210500 26011KT P6SM SCT250 
     FM210900 29016G25KT P6SM BKN050 
     FM211300 31018G27KT P6SM OVC050 
     FM212200 31015G22KT P6SM SKC